<?xml version="1.0" encoding="UTF-8" standalone="no" ?>
<gpx xmlns="http://www.topografix.com/GPX/1/1" xmlns:xsi="http://www.w3.org/2001/XMLSchema-instance" xsi:schemaLocation="http://www.topografix.com/GPX/1/1 http://www.topografix.com/GPX/1/1/gpx.xsd" version="1.1" creator="VisuGPX - https://www.visugpx.com">
  <metadata>
    <name>Tour d'Europe étape 009 2</name>
  </metadata>
  <trk>
    <name><![CDATA[Tour d'Europe étape 009 2_1]]></name>
    <trkseg>
      <trkpt lat="53.16034" lon="7.30462">
        <ele>56.521</ele>
        <time>2020-07-07T14:53:03Z</time>
      </trkpt>
      <trkpt lat="53.16034" lon="7.30462">
        <ele>56.521</ele>
        <time>2020-07-07T14:53:09Z</time>
      </trkpt>
      <trkpt lat="53.16034" lon="7.30462">
        <ele>56.521</ele>
        <time>2020-07-07T14:53:15Z</time>
      </trkpt>
      <trkpt lat="53.16034" lon="7.30462">
        <ele>56.521</ele>
        <time>2020-07-07T14:53:21Z</time>
      </trkpt>
      <trkpt lat="53.16034" lon="7.30462">
        <ele>56.521</ele>
        <time>2020-07-07T14:53:26Z</time>
      </trkpt>
      <trkpt lat="53.16034" lon="7.30462">
        <ele>56.521</ele>
        <time>2020-07-07T14:53:32Z</time>
      </trkpt>
      <trkpt lat="53.16034" lon="7.30462">
        <ele>56.521</ele>
        <time>2020-07-07T14:53:38Z</time>
      </trkpt>
      <trkpt lat="53.16034" lon="7.30462">
        <ele>56.521</ele>
        <time>2020-07-07T14:53:44Z</time>
      </trkpt>
      <trkpt lat="53.16034" lon="7.30462">
        <ele>56.521</ele>
        <time>2020-07-07T14:53:49Z</time>
      </trkpt>
      <trkpt lat="53.16034" lon="7.30462">
        <ele>56.521</ele>
        <time>2020-07-07T14:53:55Z</time>
      </trkpt>
      <trkpt lat="53.16034" lon="7.30462">
        <ele>56.521</ele>
        <time>2020-07-07T14:54:00Z</time>
      </trkpt>
      <trkpt lat="53.16034" lon="7.30462">
        <ele>56.521</ele>
        <time>2020-07-07T14:54:06Z</time>
      </trkpt>
      <trkpt lat="53.16034" lon="7.30462">
        <ele>56.521</ele>
        <time>2020-07-07T14:54:12Z</time>
      </trkpt>
      <trkpt lat="53.16034" lon="7.30462">
        <ele>56.521</ele>
        <time>2020-07-07T14:54:18Z</time>
      </trkpt>
      <trkpt lat="53.16034" lon="7.30462">
        <ele>56.521</ele>
        <time>2020-07-07T14:54:24Z</time>
      </trkpt>
      <trkpt lat="53.16034" lon="7.30462">
        <ele>56.521</ele>
        <time>2020-07-07T14:54:30Z</time>
      </trkpt>
      <trkpt lat="53.16034" lon="7.30462">
        <ele>56.521</ele>
        <time>2020-07-07T14:54:36Z</time>
      </trkpt>
      <trkpt lat="53.16034" lon="7.30462">
        <ele>56.521</ele>
        <time>2020-07-07T14:54:42Z</time>
      </trkpt>
      <trkpt lat="53.16034" lon="7.30462">
        <ele>56.521</ele>
        <time>2020-07-07T14:54:48Z</time>
      </trkpt>
      <trkpt lat="53.16034" lon="7.30462">
        <ele>56.521</ele>
        <time>2020-07-07T14:54:53Z</time>
      </trkpt>
      <trkpt lat="53.16034" lon="7.30462">
        <ele>56.521</ele>
        <time>2020-07-07T14:54:58Z</time>
      </trkpt>
      <trkpt lat="53.16034" lon="7.30462">
        <ele>56.521</ele>
        <time>2020-07-07T14:55:03Z</time>
      </trkpt>
      <trkpt lat="53.16034" lon="7.30462">
        <ele>56.521</ele>
        <time>2020-07-07T14:55:09Z</time>
      </trkpt>
      <trkpt lat="53.16034" lon="7.30462">
        <ele>56.195</ele>
        <time>2020-07-07T14:55:15Z</time>
      </trkpt>
      <trkpt lat="53.16033" lon="7.30462">
        <ele>54.811</ele>
        <time>2020-07-07T14:55:20Z</time>
      </trkpt>
      <trkpt lat="53.16033" lon="7.30462">
        <ele>54.811</ele>
        <time>2020-07-07T14:55:25Z</time>
      </trkpt>
      <trkpt lat="53.16033" lon="7.30462">
        <ele>54.811</ele>
        <time>2020-07-07T14:55:31Z</time>
      </trkpt>
      <trkpt lat="53.16033" lon="7.30462">
        <ele>54.811</ele>
        <time>2020-07-07T14:55:36Z</time>
      </trkpt>
      <trkpt lat="53.16033" lon="7.30462">
        <ele>54.811</ele>
        <time>2020-07-07T14:55:42Z</time>
      </trkpt>
      <trkpt lat="53.16033" lon="7.30462">
        <ele>54.811</ele>
        <time>2020-07-07T14:55:47Z</time>
      </trkpt>
      <trkpt lat="53.16033" lon="7.30462">
        <ele>54.811</ele>
        <time>2020-07-07T14:55:53Z</time>
      </trkpt>
      <trkpt lat="53.16033" lon="7.30462">
        <ele>54.811</ele>
        <time>2020-07-07T14:55:59Z</time>
      </trkpt>
      <trkpt lat="53.16033" lon="7.30462">
        <ele>54.811</ele>
        <time>2020-07-07T14:56:04Z</time>
      </trkpt>
      <trkpt lat="53.16033" lon="7.30462">
        <ele>54.811</ele>
        <time>2020-07-07T14:56:09Z</time>
      </trkpt>
      <trkpt lat="53.16033" lon="7.30462">
        <ele>54.811</ele>
        <time>2020-07-07T14:56:15Z</time>
      </trkpt>
      <trkpt lat="53.16033" lon="7.30462">
        <ele>54.811</ele>
        <time>2020-07-07T14:56:20Z</time>
      </trkpt>
      <trkpt lat="53.16033" lon="7.30462">
        <ele>54.811</ele>
        <time>2020-07-07T14:56:26Z</time>
      </trkpt>
      <trkpt lat="53.16033" lon="7.30462">
        <ele>54.811</ele>
        <time>2020-07-07T14:56:31Z</time>
      </trkpt>
      <trkpt lat="53.16033" lon="7.30462">
        <ele>54.811</ele>
        <time>2020-07-07T14:56:37Z</time>
      </trkpt>
      <trkpt lat="53.16033" lon="7.30462">
        <ele>54.811</ele>
        <time>2020-07-07T14:56:42Z</time>
      </trkpt>
      <trkpt lat="53.16033" lon="7.30462">
        <ele>54.811</ele>
        <time>2020-07-07T14:56:48Z</time>
      </trkpt>
      <trkpt lat="53.16033" lon="7.30462">
        <ele>54.811</ele>
        <time>2020-07-07T14:56:54Z</time>
      </trkpt>
      <trkpt lat="53.16033" lon="7.30462">
        <ele>54.811</ele>
        <time>2020-07-07T14:56:59Z</time>
      </trkpt>
      <trkpt lat="53.16033" lon="7.30462">
        <ele>54.811</ele>
        <time>2020-07-07T14:57:05Z</time>
      </trkpt>
      <trkpt lat="53.16033" lon="7.30462">
        <ele>54.811</ele>
        <time>2020-07-07T14:57:10Z</time>
      </trkpt>
      <trkpt lat="53.16033" lon="7.30462">
        <ele>54.811</ele>
        <time>2020-07-07T14:57:16Z</time>
      </trkpt>
      <trkpt lat="53.16033" lon="7.30462">
        <ele>55.014</ele>
        <time>2020-07-07T14:57:22Z</time>
      </trkpt>
      <trkpt lat="53.16033" lon="7.30462">
        <ele>55.014</ele>
        <time>2020-07-07T14:57:28Z</time>
      </trkpt>
      <trkpt lat="53.16033" lon="7.30462">
        <ele>55.014</ele>
        <time>2020-07-07T14:57:33Z</time>
      </trkpt>
      <trkpt lat="53.16033" lon="7.30462">
        <ele>55.014</ele>
        <time>2020-07-07T14:57:39Z</time>
      </trkpt>
      <trkpt lat="53.16033" lon="7.30462">
        <ele>55.014</ele>
        <time>2020-07-07T14:57:45Z</time>
      </trkpt>
      <trkpt lat="53.16033" lon="7.30462">
        <ele>55.014</ele>
        <time>2020-07-07T14:57:50Z</time>
      </trkpt>
      <trkpt lat="53.16033" lon="7.30462">
        <ele>53.332</ele>
        <time>2020-07-07T14:57:56Z</time>
      </trkpt>
      <trkpt lat="53.16033" lon="7.30462">
        <ele>53.332</ele>
        <time>2020-07-07T14:58:02Z</time>
      </trkpt>
      <trkpt lat="53.16033" lon="7.30462">
        <ele>53.332</ele>
        <time>2020-07-07T14:58:08Z</time>
      </trkpt>
      <trkpt lat="53.16033" lon="7.30462">
        <ele>53.332</ele>
        <time>2020-07-07T14:58:14Z</time>
      </trkpt>
      <trkpt lat="53.16033" lon="7.30462">
        <ele>53.332</ele>
        <time>2020-07-07T14:58:19Z</time>
      </trkpt>
      <trkpt lat="53.16033" lon="7.30462">
        <ele>53.332</ele>
        <time>2020-07-07T14:58:25Z</time>
      </trkpt>
      <trkpt lat="53.16033" lon="7.30462">
        <ele>53.332</ele>
        <time>2020-07-07T14:58:31Z</time>
      </trkpt>
      <trkpt lat="53.16033" lon="7.30462">
        <ele>53.332</ele>
        <time>2020-07-07T14:58:36Z</time>
      </trkpt>
      <trkpt lat="53.16033" lon="7.30462">
        <ele>53.332</ele>
        <time>2020-07-07T14:58:42Z</time>
      </trkpt>
      <trkpt lat="53.16033" lon="7.30462">
        <ele>53.332</ele>
        <time>2020-07-07T14:58:48Z</time>
      </trkpt>
      <trkpt lat="53.16033" lon="7.30462">
        <ele>53.332</ele>
        <time>2020-07-07T14:58:53Z</time>
      </trkpt>
      <trkpt lat="53.16033" lon="7.30462">
        <ele>53.332</ele>
        <time>2020-07-07T14:58:59Z</time>
      </trkpt>
      <trkpt lat="53.16033" lon="7.30462">
        <ele>53.332</ele>
        <time>2020-07-07T14:59:05Z</time>
      </trkpt>
      <trkpt lat="53.16033" lon="7.30462">
        <ele>53.332</ele>
        <time>2020-07-07T14:59:10Z</time>
      </trkpt>
      <trkpt lat="53.16033" lon="7.30462">
        <ele>53.332</ele>
        <time>2020-07-07T14:59:15Z</time>
      </trkpt>
      <trkpt lat="53.16033" lon="7.30462">
        <ele>53.332</ele>
        <time>2020-07-07T14:59:21Z</time>
      </trkpt>
      <trkpt lat="53.16033" lon="7.30462">
        <ele>53.332</ele>
        <time>2020-07-07T14:59:27Z</time>
      </trkpt>
      <trkpt lat="53.16033" lon="7.30462">
        <ele>53.332</ele>
        <time>2020-07-07T14:59:32Z</time>
      </trkpt>
      <trkpt lat="53.16033" lon="7.30462">
        <ele>53.332</ele>
        <time>2020-07-07T14:59:38Z</time>
      </trkpt>
      <trkpt lat="53.16033" lon="7.30462">
        <ele>53.332</ele>
        <time>2020-07-07T14:59:43Z</time>
      </trkpt>
      <trkpt lat="53.16033" lon="7.30462">
        <ele>53.332</ele>
        <time>2020-07-07T14:59:49Z</time>
      </trkpt>
      <trkpt lat="53.16033" lon="7.30462">
        <ele>53.332</ele>
        <time>2020-07-07T14:59:54Z</time>
      </trkpt>
      <trkpt lat="53.16033" lon="7.30462">
        <ele>53.332</ele>
        <time>2020-07-07T15:00:00Z</time>
      </trkpt>
      <trkpt lat="53.16033" lon="7.30462">
        <ele>53.332</ele>
        <time>2020-07-07T15:00:06Z</time>
      </trkpt>
      <trkpt lat="53.16033" lon="7.30462">
        <ele>53.332</ele>
        <time>2020-07-07T15:00:11Z</time>
      </trkpt>
      <trkpt lat="53.16033" lon="7.30462">
        <ele>53.332</ele>
        <time>2020-07-07T15:00:16Z</time>
      </trkpt>
      <trkpt lat="53.16033" lon="7.30462">
        <ele>53.332</ele>
        <time>2020-07-07T15:00:21Z</time>
      </trkpt>
      <trkpt lat="53.16033" lon="7.30462">
        <ele>53.332</ele>
        <time>2020-07-07T15:00:27Z</time>
      </trkpt>
      <trkpt lat="53.16033" lon="7.30462">
        <ele>53.332</ele>
        <time>2020-07-07T15:00:33Z</time>
      </trkpt>
      <trkpt lat="53.16033" lon="7.30462">
        <ele>53.332</ele>
        <time>2020-07-07T15:00:39Z</time>
      </trkpt>
      <trkpt lat="53.16033" lon="7.30462">
        <ele>53.332</ele>
        <time>2020-07-07T15:00:45Z</time>
      </trkpt>
      <trkpt lat="53.16033" lon="7.30462">
        <ele>53.332</ele>
        <time>2020-07-07T15:00:50Z</time>
      </trkpt>
      <trkpt lat="53.16033" lon="7.30462">
        <ele>53.332</ele>
        <time>2020-07-07T15:00:56Z</time>
      </trkpt>
      <trkpt lat="53.16033" lon="7.30462">
        <ele>53.332</ele>
        <time>2020-07-07T15:01:02Z</time>
      </trkpt>
      <trkpt lat="53.16033" lon="7.30462">
        <ele>53.332</ele>
        <time>2020-07-07T15:01:08Z</time>
      </trkpt>
      <trkpt lat="53.16033" lon="7.30462">
        <ele>53.332</ele>
        <time>2020-07-07T15:01:13Z</time>
      </trkpt>
      <trkpt lat="53.16033" lon="7.30462">
        <ele>53.332</ele>
        <time>2020-07-07T15:01:19Z</time>
      </trkpt>
      <trkpt lat="53.16033" lon="7.30462">
        <ele>53.332</ele>
        <time>2020-07-07T15:01:24Z</time>
      </trkpt>
      <trkpt lat="53.16033" lon="7.30462">
        <ele>53.332</ele>
        <time>2020-07-07T15:01:30Z</time>
      </trkpt>
      <trkpt lat="53.16033" lon="7.30462">
        <ele>53.332</ele>
        <time>2020-07-07T15:01:35Z</time>
      </trkpt>
      <trkpt lat="53.16033" lon="7.30462">
        <ele>53.332</ele>
        <time>2020-07-07T15:01:40Z</time>
      </trkpt>
      <trkpt lat="53.16033" lon="7.30462">
        <ele>53.332</ele>
        <time>2020-07-07T15:01:46Z</time>
      </trkpt>
      <trkpt lat="53.16033" lon="7.30462">
        <ele>53.332</ele>
        <time>2020-07-07T15:01:51Z</time>
      </trkpt>
      <trkpt lat="53.16033" lon="7.30462">
        <ele>53.332</ele>
        <time>2020-07-07T15:01:57Z</time>
      </trkpt>
      <trkpt lat="53.16033" lon="7.30462">
        <ele>53.332</ele>
        <time>2020-07-07T15:02:02Z</time>
      </trkpt>
      <trkpt lat="53.16033" lon="7.30462">
        <ele>53.332</ele>
        <time>2020-07-07T15:02:08Z</time>
      </trkpt>
      <trkpt lat="53.16033" lon="7.30462">
        <ele>53.332</ele>
        <time>2020-07-07T15:02:14Z</time>
      </trkpt>
      <trkpt lat="53.16033" lon="7.30462">
        <ele>53.332</ele>
        <time>2020-07-07T15:02:19Z</time>
      </trkpt>
      <trkpt lat="53.16033" lon="7.30462">
        <ele>53.332</ele>
        <time>2020-07-07T15:02:24Z</time>
      </trkpt>
      <trkpt lat="53.16033" lon="7.30462">
        <ele>53.332</ele>
        <time>2020-07-07T15:02:30Z</time>
      </trkpt>
      <trkpt lat="53.16033" lon="7.30462">
        <ele>53.332</ele>
        <time>2020-07-07T15:02:36Z</time>
      </trkpt>
      <trkpt lat="53.16033" lon="7.30462">
        <ele>53.332</ele>
        <time>2020-07-07T15:02:41Z</time>
      </trkpt>
      <trkpt lat="53.16033" lon="7.30462">
        <ele>53.412</ele>
        <time>2020-07-07T15:02:47Z</time>
      </trkpt>
      <trkpt lat="53.16033" lon="7.30462">
        <ele>53.034</ele>
        <time>2020-07-07T15:02:53Z</time>
      </trkpt>
      <trkpt lat="53.16033" lon="7.30462">
        <ele>53.034</ele>
        <time>2020-07-07T15:02:58Z</time>
      </trkpt>
      <trkpt lat="53.16033" lon="7.30462">
        <ele>53.034</ele>
        <time>2020-07-07T15:03:04Z</time>
      </trkpt>
      <trkpt lat="53.16033" lon="7.30462">
        <ele>52.729</ele>
        <time>2020-07-07T15:03:10Z</time>
      </trkpt>
      <trkpt lat="53.16014" lon="7.3046">
        <ele>52.254</ele>
        <time>2020-07-07T15:03:15Z</time>
      </trkpt>
      <trkpt lat="53.16" lon="7.30464">
        <ele>51.75</ele>
        <time>2020-07-07T15:03:20Z</time>
      </trkpt>
      <trkpt lat="53.15985" lon="7.30468">
        <ele>51.326</ele>
        <time>2020-07-07T15:03:25Z</time>
      </trkpt>
      <trkpt lat="53.15968" lon="7.30479">
        <ele>50.029</ele>
        <time>2020-07-07T15:03:31Z</time>
      </trkpt>
      <trkpt lat="53.15966" lon="7.30507">
        <ele>49.158</ele>
        <time>2020-07-07T15:03:37Z</time>
      </trkpt>
      <trkpt lat="53.15968" lon="7.30533">
        <ele>48.95</ele>
        <time>2020-07-07T15:03:42Z</time>
      </trkpt>
      <trkpt lat="53.15972" lon="7.30567">
        <ele>49.681</ele>
        <time>2020-07-07T15:03:48Z</time>
      </trkpt>
      <trkpt lat="53.15974" lon="7.30597">
        <ele>48.66</ele>
        <time>2020-07-07T15:03:53Z</time>
      </trkpt>
      <trkpt lat="53.15978" lon="7.30628">
        <ele>48.783</ele>
        <time>2020-07-07T15:03:58Z</time>
      </trkpt>
      <trkpt lat="53.15981" lon="7.30659">
        <ele>49.184</ele>
        <time>2020-07-07T15:04:03Z</time>
      </trkpt>
      <trkpt lat="53.15985" lon="7.30701">
        <ele>49.058</ele>
        <time>2020-07-07T15:04:09Z</time>
      </trkpt>
      <trkpt lat="53.15989" lon="7.30739">
        <ele>48.361</ele>
        <time>2020-07-07T15:04:15Z</time>
      </trkpt>
      <trkpt lat="53.15992" lon="7.30769">
        <ele>48.45</ele>
        <time>2020-07-07T15:04:20Z</time>
      </trkpt>
      <trkpt lat="53.15997" lon="7.30809">
        <ele>49.05</ele>
        <time>2020-07-07T15:04:26Z</time>
      </trkpt>
      <trkpt lat="53.16001" lon="7.3085">
        <ele>49.65</ele>
        <time>2020-07-07T15:04:32Z</time>
      </trkpt>
      <trkpt lat="53.16005" lon="7.30885">
        <ele>49.53</ele>
        <time>2020-07-07T15:04:37Z</time>
      </trkpt>
      <trkpt lat="53.16011" lon="7.30924">
        <ele>49.392</ele>
        <time>2020-07-07T15:04:43Z</time>
      </trkpt>
      <trkpt lat="53.16008" lon="7.30959">
        <ele>48.771</ele>
        <time>2020-07-07T15:04:48Z</time>
      </trkpt>
      <trkpt lat="53.15996" lon="7.31">
        <ele>47.533</ele>
        <time>2020-07-07T15:04:54Z</time>
      </trkpt>
      <trkpt lat="53.1599" lon="7.31036">
        <ele>46.972</ele>
        <time>2020-07-07T15:04:59Z</time>
      </trkpt>
      <trkpt lat="53.15987" lon="7.31076">
        <ele>45.726</ele>
        <time>2020-07-07T15:05:05Z</time>
      </trkpt>
      <trkpt lat="53.15985" lon="7.31112">
        <ele>44.925</ele>
        <time>2020-07-07T15:05:11Z</time>
      </trkpt>
      <trkpt lat="53.15984" lon="7.31144">
        <ele>44.598</ele>
        <time>2020-07-07T15:05:16Z</time>
      </trkpt>
      <trkpt lat="53.15981" lon="7.31177">
        <ele>45.045</ele>
        <time>2020-07-07T15:05:22Z</time>
      </trkpt>
      <trkpt lat="53.15982" lon="7.31212">
        <ele>47.145</ele>
        <time>2020-07-07T15:05:28Z</time>
      </trkpt>
      <trkpt lat="53.15965" lon="7.3122">
        <ele>47.024</ele>
        <time>2020-07-07T15:05:34Z</time>
      </trkpt>
      <trkpt lat="53.15951" lon="7.31229">
        <ele>45.404</ele>
        <time>2020-07-07T15:05:39Z</time>
      </trkpt>
      <trkpt lat="53.15944" lon="7.31259">
        <ele>45.172</ele>
        <time>2020-07-07T15:05:45Z</time>
      </trkpt>
      <trkpt lat="53.15938" lon="7.31291">
        <ele>44.982</ele>
        <time>2020-07-07T15:05:51Z</time>
      </trkpt>
      <trkpt lat="53.15935" lon="7.31323">
        <ele>44.892</ele>
        <time>2020-07-07T15:05:57Z</time>
      </trkpt>
      <trkpt lat="53.15933" lon="7.31359">
        <ele>46.754</ele>
        <time>2020-07-07T15:06:03Z</time>
      </trkpt>
      <trkpt lat="53.15933" lon="7.31393">
        <ele>48.773</ele>
        <time>2020-07-07T15:06:09Z</time>
      </trkpt>
      <trkpt lat="53.1593" lon="7.31433">
        <ele>50.115</ele>
        <time>2020-07-07T15:06:15Z</time>
      </trkpt>
      <trkpt lat="53.15929" lon="7.31462">
        <ele>49.932</ele>
        <time>2020-07-07T15:06:20Z</time>
      </trkpt>
      <trkpt lat="53.15928" lon="7.3149">
        <ele>50.753</ele>
        <time>2020-07-07T15:06:25Z</time>
      </trkpt>
      <trkpt lat="53.15926" lon="7.31517">
        <ele>51.564</ele>
        <time>2020-07-07T15:06:31Z</time>
      </trkpt>
      <trkpt lat="53.15923" lon="7.31547">
        <ele>52.851</ele>
        <time>2020-07-07T15:06:36Z</time>
      </trkpt>
      <trkpt lat="53.15918" lon="7.31568">
        <ele>54.557</ele>
        <time>2020-07-07T15:06:41Z</time>
      </trkpt>
      <trkpt lat="53.1591" lon="7.31589">
        <ele>56.507</ele>
        <time>2020-07-07T15:06:46Z</time>
      </trkpt>
      <trkpt lat="53.159" lon="7.31615">
        <ele>57.443</ele>
        <time>2020-07-07T15:06:52Z</time>
      </trkpt>
      <trkpt lat="53.15893" lon="7.31642">
        <ele>58.184</ele>
        <time>2020-07-07T15:06:58Z</time>
      </trkpt>
      <trkpt lat="53.1589" lon="7.31668">
        <ele>58.921</ele>
        <time>2020-07-07T15:07:04Z</time>
      </trkpt>
      <trkpt lat="53.15882" lon="7.31693">
        <ele>58.398</ele>
        <time>2020-07-07T15:07:11Z</time>
      </trkpt>
      <trkpt lat="53.15895" lon="7.31715">
        <ele>56.943</ele>
        <time>2020-07-07T15:07:16Z</time>
      </trkpt>
      <trkpt lat="53.15894" lon="7.3173">
        <ele>56.329</ele>
        <time>2020-07-07T15:07:21Z</time>
      </trkpt>
      <trkpt lat="53.15889" lon="7.31737">
        <ele>55.88</ele>
        <time>2020-07-07T15:07:27Z</time>
      </trkpt>
      <trkpt lat="53.15893" lon="7.31719">
        <ele>56.497</ele>
        <time>2020-07-07T15:07:33Z</time>
      </trkpt>
      <trkpt lat="53.15883" lon="7.31696">
        <ele>57.21</ele>
        <time>2020-07-07T15:07:39Z</time>
      </trkpt>
      <trkpt lat="53.15871" lon="7.31715">
        <ele>56.286</ele>
        <time>2020-07-07T15:07:45Z</time>
      </trkpt>
      <trkpt lat="53.15863" lon="7.31736">
        <ele>56.322</ele>
        <time>2020-07-07T15:07:51Z</time>
      </trkpt>
      <trkpt lat="53.15858" lon="7.31745">
        <ele>57.377</ele>
        <time>2020-07-07T15:07:56Z</time>
      </trkpt>
      <trkpt lat="53.15847" lon="7.31733">
        <ele>59.785</ele>
        <time>2020-07-07T15:08:02Z</time>
      </trkpt>
      <trkpt lat="53.15835" lon="7.3172">
        <ele>60.219</ele>
        <time>2020-07-07T15:08:07Z</time>
      </trkpt>
      <trkpt lat="53.15818" lon="7.31704">
        <ele>62.135</ele>
        <time>2020-07-07T15:08:13Z</time>
      </trkpt>
      <trkpt lat="53.15803" lon="7.31687">
        <ele>63.701</ele>
        <time>2020-07-07T15:08:19Z</time>
      </trkpt>
      <trkpt lat="53.15786" lon="7.3167">
        <ele>64.345</ele>
        <time>2020-07-07T15:08:25Z</time>
      </trkpt>
      <trkpt lat="53.15772" lon="7.31654">
        <ele>64.891</ele>
        <time>2020-07-07T15:08:30Z</time>
      </trkpt>
      <trkpt lat="53.15756" lon="7.31637">
        <ele>63.847</ele>
        <time>2020-07-07T15:08:36Z</time>
      </trkpt>
      <trkpt lat="53.15741" lon="7.31618">
        <ele>62.708</ele>
        <time>2020-07-07T15:08:42Z</time>
      </trkpt>
      <trkpt lat="53.15724" lon="7.31597">
        <ele>62.37</ele>
        <time>2020-07-07T15:08:48Z</time>
      </trkpt>
      <trkpt lat="53.1571" lon="7.31581">
        <ele>62.33</ele>
        <time>2020-07-07T15:08:53Z</time>
      </trkpt>
      <trkpt lat="53.15691" lon="7.31562">
        <ele>62.511</ele>
        <time>2020-07-07T15:08:59Z</time>
      </trkpt>
      <trkpt lat="53.15675" lon="7.31543">
        <ele>62.486</ele>
        <time>2020-07-07T15:09:04Z</time>
      </trkpt>
      <trkpt lat="53.15659" lon="7.31524">
        <ele>63.306</ele>
        <time>2020-07-07T15:09:09Z</time>
      </trkpt>
      <trkpt lat="53.15642" lon="7.31506">
        <ele>63.432</ele>
        <time>2020-07-07T15:09:14Z</time>
      </trkpt>
      <trkpt lat="53.15628" lon="7.31489">
        <ele>63.936</ele>
        <time>2020-07-07T15:09:19Z</time>
      </trkpt>
      <trkpt lat="53.15612" lon="7.3147">
        <ele>63.757</ele>
        <time>2020-07-07T15:09:25Z</time>
      </trkpt>
      <trkpt lat="53.15593" lon="7.3145">
        <ele>62.652</ele>
        <time>2020-07-07T15:09:31Z</time>
      </trkpt>
      <trkpt lat="53.15575" lon="7.31433">
        <ele>61.833</ele>
        <time>2020-07-07T15:09:37Z</time>
      </trkpt>
      <trkpt lat="53.15557" lon="7.31412">
        <ele>61.206</ele>
        <time>2020-07-07T15:09:43Z</time>
      </trkpt>
      <trkpt lat="53.15539" lon="7.3139">
        <ele>60.896</ele>
        <time>2020-07-07T15:09:49Z</time>
      </trkpt>
      <trkpt lat="53.15516" lon="7.31368">
        <ele>59.96</ele>
        <time>2020-07-07T15:09:55Z</time>
      </trkpt>
      <trkpt lat="53.15496" lon="7.31347">
        <ele>58.886</ele>
        <time>2020-07-07T15:10:01Z</time>
      </trkpt>
      <trkpt lat="53.15477" lon="7.31368">
        <ele>57.07</ele>
        <time>2020-07-07T15:10:07Z</time>
      </trkpt>
      <trkpt lat="53.1547" lon="7.31409">
        <ele>55.679</ele>
        <time>2020-07-07T15:10:13Z</time>
      </trkpt>
      <trkpt lat="53.15464" lon="7.31445">
        <ele>54.762</ele>
        <time>2020-07-07T15:10:18Z</time>
      </trkpt>
      <trkpt lat="53.15457" lon="7.3149">
        <ele>52.458</ele>
        <time>2020-07-07T15:10:24Z</time>
      </trkpt>
      <trkpt lat="53.15451" lon="7.31528">
        <ele>51.537</ele>
        <time>2020-07-07T15:10:29Z</time>
      </trkpt>
      <trkpt lat="53.15443" lon="7.31572">
        <ele>51.459</ele>
        <time>2020-07-07T15:10:35Z</time>
      </trkpt>
      <trkpt lat="53.15436" lon="7.31615">
        <ele>52.835</ele>
        <time>2020-07-07T15:10:40Z</time>
      </trkpt>
      <trkpt lat="53.1543" lon="7.31655">
        <ele>53.867</ele>
        <time>2020-07-07T15:10:45Z</time>
      </trkpt>
      <trkpt lat="53.15421" lon="7.31703">
        <ele>55.156</ele>
        <time>2020-07-07T15:10:51Z</time>
      </trkpt>
      <trkpt lat="53.15414" lon="7.31743">
        <ele>55.261</ele>
        <time>2020-07-07T15:10:56Z</time>
      </trkpt>
      <trkpt lat="53.15406" lon="7.31795">
        <ele>56.122</ele>
        <time>2020-07-07T15:11:02Z</time>
      </trkpt>
      <trkpt lat="53.15398" lon="7.31839">
        <ele>56.448</ele>
        <time>2020-07-07T15:11:07Z</time>
      </trkpt>
      <trkpt lat="53.15391" lon="7.31891">
        <ele>56.309</ele>
        <time>2020-07-07T15:11:13Z</time>
      </trkpt>
      <trkpt lat="53.15383" lon="7.31934">
        <ele>56.063</ele>
        <time>2020-07-07T15:11:18Z</time>
      </trkpt>
      <trkpt lat="53.15374" lon="7.31983">
        <ele>56.476</ele>
        <time>2020-07-07T15:11:24Z</time>
      </trkpt>
      <trkpt lat="53.15367" lon="7.32026">
        <ele>55.773</ele>
        <time>2020-07-07T15:11:29Z</time>
      </trkpt>
      <trkpt lat="53.15358" lon="7.32078">
        <ele>55.077</ele>
        <time>2020-07-07T15:11:35Z</time>
      </trkpt>
      <trkpt lat="53.1535" lon="7.3213">
        <ele>54.583</ele>
        <time>2020-07-07T15:11:41Z</time>
      </trkpt>
      <trkpt lat="53.15343" lon="7.32172">
        <ele>54.016</ele>
        <time>2020-07-07T15:11:46Z</time>
      </trkpt>
      <trkpt lat="53.15336" lon="7.32214">
        <ele>52.576</ele>
        <time>2020-07-07T15:11:51Z</time>
      </trkpt>
      <trkpt lat="53.15329" lon="7.32257">
        <ele>51.081</ele>
        <time>2020-07-07T15:11:56Z</time>
      </trkpt>
      <trkpt lat="53.15321" lon="7.32297">
        <ele>49.785</ele>
        <time>2020-07-07T15:12:01Z</time>
      </trkpt>
      <trkpt lat="53.15312" lon="7.32348">
        <ele>49.216</ele>
        <time>2020-07-07T15:12:07Z</time>
      </trkpt>
      <trkpt lat="53.15304" lon="7.32392">
        <ele>49.465</ele>
        <time>2020-07-07T15:12:12Z</time>
      </trkpt>
      <trkpt lat="53.15297" lon="7.32437">
        <ele>50.222</ele>
        <time>2020-07-07T15:12:17Z</time>
      </trkpt>
      <trkpt lat="53.15291" lon="7.32478">
        <ele>51.197</ele>
        <time>2020-07-07T15:12:22Z</time>
      </trkpt>
      <trkpt lat="53.15283" lon="7.32521">
        <ele>53.088</ele>
        <time>2020-07-07T15:12:28Z</time>
      </trkpt>
      <trkpt lat="53.15287" lon="7.3256">
        <ele>54.256</ele>
        <time>2020-07-07T15:12:34Z</time>
      </trkpt>
      <trkpt lat="53.15294" lon="7.32603">
        <ele>56.802</ele>
        <time>2020-07-07T15:12:40Z</time>
      </trkpt>
      <trkpt lat="53.15302" lon="7.32648">
        <ele>56.484</ele>
        <time>2020-07-07T15:12:46Z</time>
      </trkpt>
      <trkpt lat="53.1531" lon="7.32686">
        <ele>55.859</ele>
        <time>2020-07-07T15:12:51Z</time>
      </trkpt>
      <trkpt lat="53.1532" lon="7.3273">
        <ele>55.622</ele>
        <time>2020-07-07T15:12:57Z</time>
      </trkpt>
      <trkpt lat="53.15328" lon="7.32766">
        <ele>54.646</ele>
        <time>2020-07-07T15:13:02Z</time>
      </trkpt>
      <trkpt lat="53.15337" lon="7.32808">
        <ele>53.325</ele>
        <time>2020-07-07T15:13:08Z</time>
      </trkpt>
      <trkpt lat="53.15345" lon="7.32848">
        <ele>52.628</ele>
        <time>2020-07-07T15:13:14Z</time>
      </trkpt>
      <trkpt lat="53.15351" lon="7.3288">
        <ele>51.449</ele>
        <time>2020-07-07T15:13:19Z</time>
      </trkpt>
      <trkpt lat="53.15358" lon="7.3292">
        <ele>50.263</ele>
        <time>2020-07-07T15:13:25Z</time>
      </trkpt>
      <trkpt lat="53.15367" lon="7.32961">
        <ele>50.037</ele>
        <time>2020-07-07T15:13:31Z</time>
      </trkpt>
      <trkpt lat="53.15376" lon="7.33003">
        <ele>49.993</ele>
        <time>2020-07-07T15:13:37Z</time>
      </trkpt>
      <trkpt lat="53.15383" lon="7.33037">
        <ele>49.757</ele>
        <time>2020-07-07T15:13:42Z</time>
      </trkpt>
      <trkpt lat="53.15392" lon="7.33079">
        <ele>49.781</ele>
        <time>2020-07-07T15:13:48Z</time>
      </trkpt>
      <trkpt lat="53.15399" lon="7.33113">
        <ele>50.295</ele>
        <time>2020-07-07T15:13:53Z</time>
      </trkpt>
      <trkpt lat="53.15405" lon="7.33146">
        <ele>50.094</ele>
        <time>2020-07-07T15:13:58Z</time>
      </trkpt>
      <trkpt lat="53.15411" lon="7.33184">
        <ele>51.218</ele>
        <time>2020-07-07T15:14:04Z</time>
      </trkpt>
      <trkpt lat="53.15418" lon="7.33217">
        <ele>51.691</ele>
        <time>2020-07-07T15:14:09Z</time>
      </trkpt>
      <trkpt lat="53.15425" lon="7.33257">
        <ele>51.928</ele>
        <time>2020-07-07T15:14:15Z</time>
      </trkpt>
      <trkpt lat="53.15431" lon="7.33297">
        <ele>52.515</ele>
        <time>2020-07-07T15:14:21Z</time>
      </trkpt>
      <trkpt lat="53.15439" lon="7.33337">
        <ele>52.336</ele>
        <time>2020-07-07T15:14:27Z</time>
      </trkpt>
      <trkpt lat="53.15446" lon="7.33368">
        <ele>51.906</ele>
        <time>2020-07-07T15:14:32Z</time>
      </trkpt>
      <trkpt lat="53.15453" lon="7.33406">
        <ele>51.76</ele>
        <time>2020-07-07T15:14:38Z</time>
      </trkpt>
      <trkpt lat="53.15458" lon="7.33435">
        <ele>51.681</ele>
        <time>2020-07-07T15:14:43Z</time>
      </trkpt>
      <trkpt lat="53.15465" lon="7.33472">
        <ele>51.609</ele>
        <time>2020-07-07T15:14:49Z</time>
      </trkpt>
      <trkpt lat="53.15472" lon="7.33503">
        <ele>52.801</ele>
        <time>2020-07-07T15:14:54Z</time>
      </trkpt>
      <trkpt lat="53.15478" lon="7.33532">
        <ele>53.241</ele>
        <time>2020-07-07T15:14:59Z</time>
      </trkpt>
      <trkpt lat="53.15484" lon="7.3356">
        <ele>53.053</ele>
        <time>2020-07-07T15:15:04Z</time>
      </trkpt>
      <trkpt lat="53.15492" lon="7.33596">
        <ele>53.429</ele>
        <time>2020-07-07T15:15:10Z</time>
      </trkpt>
      <trkpt lat="53.15497" lon="7.33626">
        <ele>52.946</ele>
        <time>2020-07-07T15:15:15Z</time>
      </trkpt>
      <trkpt lat="53.15505" lon="7.33666">
        <ele>53.735</ele>
        <time>2020-07-07T15:15:21Z</time>
      </trkpt>
      <trkpt lat="53.1551" lon="7.33696">
        <ele>54.258</ele>
        <time>2020-07-07T15:15:26Z</time>
      </trkpt>
      <trkpt lat="53.15516" lon="7.33726">
        <ele>53.901</ele>
        <time>2020-07-07T15:15:31Z</time>
      </trkpt>
      <trkpt lat="53.15523" lon="7.33764">
        <ele>54.535</ele>
        <time>2020-07-07T15:15:37Z</time>
      </trkpt>
      <trkpt lat="53.15531" lon="7.33798">
        <ele>54.89</ele>
        <time>2020-07-07T15:15:42Z</time>
      </trkpt>
      <trkpt lat="53.15538" lon="7.33836">
        <ele>55.039</ele>
        <time>2020-07-07T15:15:48Z</time>
      </trkpt>
      <trkpt lat="53.15538" lon="7.33874">
        <ele>55.64</ele>
        <time>2020-07-07T15:15:54Z</time>
      </trkpt>
      <trkpt lat="53.15538" lon="7.33903">
        <ele>55.727</ele>
        <time>2020-07-07T15:15:59Z</time>
      </trkpt>
      <trkpt lat="53.15554" lon="7.3393">
        <ele>55.456</ele>
        <time>2020-07-07T15:16:05Z</time>
      </trkpt>
      <trkpt lat="53.15573" lon="7.33963">
        <ele>55.061</ele>
        <time>2020-07-07T15:16:11Z</time>
      </trkpt>
      <trkpt lat="53.15589" lon="7.3399">
        <ele>55.925</ele>
        <time>2020-07-07T15:16:16Z</time>
      </trkpt>
      <trkpt lat="53.15605" lon="7.34018">
        <ele>55.835</ele>
        <time>2020-07-07T15:16:21Z</time>
      </trkpt>
      <trkpt lat="53.15624" lon="7.34049">
        <ele>55.102</ele>
        <time>2020-07-07T15:16:27Z</time>
      </trkpt>
      <trkpt lat="53.15643" lon="7.3408">
        <ele>54.55</ele>
        <time>2020-07-07T15:16:33Z</time>
      </trkpt>
      <trkpt lat="53.15663" lon="7.34112">
        <ele>53.553</ele>
        <time>2020-07-07T15:16:39Z</time>
      </trkpt>
      <trkpt lat="53.15677" lon="7.34137">
        <ele>52.976</ele>
        <time>2020-07-07T15:16:44Z</time>
      </trkpt>
      <trkpt lat="53.15696" lon="7.34168">
        <ele>51.983</ele>
        <time>2020-07-07T15:16:50Z</time>
      </trkpt>
      <trkpt lat="53.15712" lon="7.34193">
        <ele>51.326</ele>
        <time>2020-07-07T15:16:55Z</time>
      </trkpt>
      <trkpt lat="53.15729" lon="7.34219">
        <ele>50.669</ele>
        <time>2020-07-07T15:17:00Z</time>
      </trkpt>
      <trkpt lat="53.15745" lon="7.34244">
        <ele>50.649</ele>
        <time>2020-07-07T15:17:05Z</time>
      </trkpt>
      <trkpt lat="53.15764" lon="7.34275">
        <ele>50.056</ele>
        <time>2020-07-07T15:17:11Z</time>
      </trkpt>
      <trkpt lat="53.15783" lon="7.34305">
        <ele>50.067</ele>
        <time>2020-07-07T15:17:17Z</time>
      </trkpt>
      <trkpt lat="53.15799" lon="7.34329">
        <ele>51.041</ele>
        <time>2020-07-07T15:17:22Z</time>
      </trkpt>
      <trkpt lat="53.15815" lon="7.34353">
        <ele>50.834</ele>
        <time>2020-07-07T15:17:28Z</time>
      </trkpt>
      <trkpt lat="53.15828" lon="7.34374">
        <ele>50.303</ele>
        <time>2020-07-07T15:17:33Z</time>
      </trkpt>
      <trkpt lat="53.15843" lon="7.34401">
        <ele>51.367</ele>
        <time>2020-07-07T15:17:39Z</time>
      </trkpt>
      <trkpt lat="53.1586" lon="7.34431">
        <ele>52.847</ele>
        <time>2020-07-07T15:17:45Z</time>
      </trkpt>
      <trkpt lat="53.15875" lon="7.34458">
        <ele>53.242</ele>
        <time>2020-07-07T15:17:51Z</time>
      </trkpt>
      <trkpt lat="53.15892" lon="7.34488">
        <ele>53.35</ele>
        <time>2020-07-07T15:17:57Z</time>
      </trkpt>
      <trkpt lat="53.15906" lon="7.34512">
        <ele>54.046</ele>
        <time>2020-07-07T15:18:02Z</time>
      </trkpt>
      <trkpt lat="53.15922" lon="7.34535">
        <ele>54.096</ele>
        <time>2020-07-07T15:18:07Z</time>
      </trkpt>
      <trkpt lat="53.15937" lon="7.34556">
        <ele>53.49</ele>
        <time>2020-07-07T15:18:12Z</time>
      </trkpt>
      <trkpt lat="53.15954" lon="7.3458">
        <ele>52.802</ele>
        <time>2020-07-07T15:18:18Z</time>
      </trkpt>
      <trkpt lat="53.15962" lon="7.34598">
        <ele>52.584</ele>
        <time>2020-07-07T15:18:23Z</time>
      </trkpt>
      <trkpt lat="53.15968" lon="7.34613">
        <ele>51.382</ele>
        <time>2020-07-07T15:18:29Z</time>
      </trkpt>
      <trkpt lat="53.15975" lon="7.34623">
        <ele>51.256</ele>
        <time>2020-07-07T15:18:34Z</time>
      </trkpt>
      <trkpt lat="53.15974" lon="7.34625">
        <ele>51.276</ele>
        <time>2020-07-07T15:18:40Z</time>
      </trkpt>
      <trkpt lat="53.15974" lon="7.34643">
        <ele>51.156</ele>
        <time>2020-07-07T15:18:46Z</time>
      </trkpt>
      <trkpt lat="53.15961" lon="7.34648">
        <ele>52.147</ele>
        <time>2020-07-07T15:18:52Z</time>
      </trkpt>
      <trkpt lat="53.15946" lon="7.34652">
        <ele>50.583</ele>
        <time>2020-07-07T15:18:58Z</time>
      </trkpt>
      <trkpt lat="53.1593" lon="7.34657">
        <ele>51.762</ele>
        <time>2020-07-07T15:19:04Z</time>
      </trkpt>
      <trkpt lat="53.15913" lon="7.34658">
        <ele>53.077</ele>
        <time>2020-07-07T15:19:10Z</time>
      </trkpt>
      <trkpt lat="53.15901" lon="7.34661">
        <ele>53.518</ele>
        <time>2020-07-07T15:19:15Z</time>
      </trkpt>
      <trkpt lat="53.15895" lon="7.34666">
        <ele>54.364</ele>
        <time>2020-07-07T15:19:21Z</time>
      </trkpt>
      <trkpt lat="53.15895" lon="7.34666">
        <ele>54.364</ele>
        <time>2020-07-07T15:19:27Z</time>
      </trkpt>
      <trkpt lat="53.15895" lon="7.34666">
        <ele>54.364</ele>
        <time>2020-07-07T15:19:33Z</time>
      </trkpt>
    </trkseg>
  </trk>
</gpx>